Time;durP1;ratioP1;P1;durP2;ratioP2;P2;SDS_P1;SDS_P2;PMS_P1;PMS_P2;Temp;Humidity;BMP_temperature;BMP_pressure;BME280_temperature;BME280_humidity;BME280_pressure;Samples;Min_cycle;Max_cycle;Signal;HPM_P1;HPM_P2
2023/08/02 00:00:34;;;;;;;;;4.25;4.00;;;;;19.20;69.80;99669.88;5036564;28;45252;-86
2023/08/02 00:02:59;;;;;;;;;2.25;2.00;;;;;19.16;69.27;99655.19;5042938;28;45220;-85
2023/08/02 00:05:25;;;;;;;;;4.00;2.00;;;;;19.19;70.20;99662.03;5038320;28;45441;-86
2023/08/02 00:07:50;;;;;;;;;4.00;3.00;;;;;19.13;69.55;99647.47;5034228;28;49529;-87
2023/08/02 00:10:17;;;;;;;;;1.75;1.75;;;;;19.09;69.66;99638.91;5036893;28;45229;-88
2023/08/02 00:12:43;;;;;;;;;2.00;2.00;;;;;19.15;70.29;99643.72;5055634;28;45544;-86
2023/08/02 00:15:09;;;;;;;;;1.00;1.00;;;;;19.10;69.98;99631.78;5040693;28;45377;-86
2023/08/02 00:17:35;;;;;;;;;3.00;1.00;;;;;19.10;69.82;99637.09;5037672;28;45529;-86
2023/08/02 00:20:00;;;;;;;;;4.00;2.75;;;;;19.09;70.23;99625.66;5040150;28;45485;-86
2023/08/02 00:22:26;;;;;;;;;8.50;4.25;;;;;19.09;69.91;99619.53;5061564;28;45362;-86
2023/08/02 00:24:51;;;;;;;;;3.25;2.50;;;;;19.10;70.57;99622.03;5057715;28;44711;-84
2023/08/02 00:27:16;;;;;;;;;1.00;1.00;;;;;19.05;70.50;99604.81;5049008;28;65404;-86
2023/08/02 00:29:42;;;;;;;;;1.25;1.00;;;;;19.08;70.49;99599.25;5044275;28;56556;-87
2023/08/02 00:32:07;;;;;;;;;0.00;0.00;;;;;19.11;70.38;99602.50;5055079;28;51955;-87
2023/08/02 00:34:32;;;;;;;;;2.00;1.00;;;;;19.08;70.90;99597.44;5023781;28;61989;-86
2023/08/02 00:36:58;;;;;;;;;2.50;1.00;;;;;19.05;70.54;99587.09;5040314;28;65116;-88
2023/08/02 00:39:24;;;;;;;;;1.00;1.00;;;;;19.03;71.09;99577.56;5027687;28;45253;-85
2023/08/02 00:41:50;;;;;;;;;2.00;1.00;;;;;19.05;70.72;99576.50;5022818;28;45351;-86
2023/08/02 00:44:15;;;;;;;;;0.75;0.00;;;;;19.05;71.05;99565.03;5039098;28;47027;-85
2023/08/02 00:46:40;;;;;;;;;0.00;0.00;;;;;19.01;71.59;99547.69;5039048;28;45370;-85
2023/08/02 00:49:08;;;;;;;;;0.00;0.00;;;;;18.99;70.93;99539.03;5036713;28;57723;-84
2023/08/02 00:51:34;;;;;;;;;0.00;0.00;;;;;19.01;72.01;99539.75;5038499;28;45436;-84
2023/08/02 00:54:02;;;;;;;;;0.50;0.00;;;;;19.00;71.07;99519.47;5030697;28;68706;-86
2023/08/02 00:56:29;;;;;;;;;0.00;0.00;;;;;18.97;72.01;99499.38;5037303;28;48424;-84
2023/08/02 00:58:54;;;;;;;;;1.00;1.00;;;;;18.91;71.99;99491.91;5034969;28;45539;-85
2023/08/02 01:01:19;;;;;;;;;0.00;0.00;;;;;18.91;75.30;99497.22;5018223;28;45564;-85
2023/08/02 01:03:45;;;;;;;;;0.00;0.00;;;;;18.84;74.69;99488.94;5034187;28;55580;-86
2023/08/02 01:06:32;;;;;;;;;0.00;0.00;;;;;18.86;72.88;99494.13;5024977;28;48226;-86
2023/08/02 01:09:04;;;;;;;;;0.00;0.00;;;;;18.84;73.09;99474.81;5043037;28;45704;-88
2023/08/02 01:11:40;;;;;;;;;0.00;0.00;;;;;18.85;72.35;99466.75;5027092;28;46943;-86
2023/08/02 01:14:07;;;;;;;;;0.00;0.00;;;;;18.87;72.45;99461.34;5025558;28;45523;-89
2023/08/02 01:16:33;;;;;;;;;0.00;0.00;;;;;18.87;72.92;99453.38;5039346;28;45327;-88
2023/08/02 01:19:08;;;;;;;;;0.00;0.00;;;;;18.83;73.51;99444.84;5024606;28;45369;-88
2023/08/02 01:21:33;;;;;;;;;1.00;0.00;;;;;18.83;73.08;99433.41;5039762;28;45512;-86
2023/08/02 01:23:58;;;;;;;;;0.00;0.00;;;;;18.81;74.15;99427.34;5009639;28;45571;-87
2023/08/02 01:26:27;;;;;;;;;0.00;0.00;;;;;18.77;73.59;99413.53;5024217;28;61354;-87
2023/08/02 01:28:54;;;;;;;;;0.00;0.00;;;;;18.80;73.78;99418.53;5017960;28;45301;-87
2023/08/02 01:31:21;;;;;;;;;0.00;0.00;;;;;18.78;73.99;99413.38;5047002;28;45353;-87
2023/08/02 01:33:50;;;;;;;;;0.00;0.00;;;;;18.78;73.56;99407.22;5037283;28;45376;-85
2023/08/02 01:36:16;;;;;;;;;0.00;0.00;;;;;18.74;73.74;99393.41;5036129;28;46379;-86
2023/08/02 01:38:42;;;;;;;;;0.00;0.00;;;;;18.69;73.46;99384.97;5045675;28;45636;-85
2023/08/02 01:41:07;;;;;;;;;0.00;0.00;;;;;18.74;73.92;99389.91;5012330;28;45365;-85
2023/08/02 01:43:32;;;;;;;;;0.50;0.00;;;;;18.67;74.14;99378.13;5037019;28;45680;-87
2023/08/02 01:45:58;;;;;;;;;0.00;0.00;;;;;18.66;74.78;99368.50;5036650;28;56839;-89
2023/08/02 01:48:25;;;;;;;;;0.00;0.00;;;;;18.64;75.34;99362.47;5039955;28;59677;-88
2023/08/02 01:50:51;;;;;;;;;0.00;0.00;;;;;18.64;75.08;99357.19;5021207;28;45262;-87
2023/08/02 01:53:16;;;;;;;;;1.00;0.00;;;;;18.65;75.49;99364.19;5028442;28;45585;-89
2023/08/02 01:55:42;;;;;;;;;1.00;0.00;;;;;18.65;74.27;99365.00;5033068;28;71124;-87
2023/08/02 01:58:08;;;;;;;;;0.00;0.00;;;;;18.72;73.95;99365.34;5036987;28;45502;-87
2023/08/02 02:00:33;;;;;;;;;0.00;0.00;;;;;18.71;74.29;99359.19;5030492;28;45319;-88
2023/08/02 02:02:58;;;;;;;;;0.50;0.00;;;;;18.75;73.80;99367.72;5026782;28;45602;-88
2023/08/02 02:05:25;;;;;;;;;0.00;0.00;;;;;18.77;74.04;99356.03;5038211;28;53114;-88
2023/08/02 02:07:50;;;;;;;;;0.00;0.00;;;;;18.81;74.47;99353.97;5038880;28;45382;-87
2023/08/02 02:10:16;;;;;;;;;0.75;0.00;;;;;18.83;74.36;99351.22;5036326;28;45442;-89
2023/08/02 02:12:41;;;;;;;;;0.00;0.00;;;;;18.82;74.42;99339.78;5021176;28;45628;-88
2023/08/02 02:15:07;;;;;;;;;1.75;0.00;;;;;18.82;74.24;99334.47;5032322;28;54947;-89
2023/08/02 02:17:32;;;;;;;;;0.00;0.00;;;;;18.84;74.26;99329.03;5028016;28;45481;-88
2023/08/02 02:19:57;;;;;;;;;0.25;0.00;;;;;18.85;74.64;99328.09;5032919;28;45480;-86
2023/08/02 02:22:23;;;;;;;;;0.00;0.00;;;;;18.83;75.18;99328.22;5039650;28;45649;-87
2023/08/02 02:24:48;;;;;;;;;0.00;0.00;;;;;18.75;75.04;99310.28;5027227;28;72770;-89
2023/08/02 02:27:13;;;;;;;;;0.00;0.00;;;;;18.78;75.30;99303.88;5028432;28;45413;-88
2023/08/02 02:29:39;;;;;;;;;0.00;0.00;;;;;18.79;75.27;99309.03;5037744;28;69348;-87
2023/08/02 02:32:04;;;;;;;;;0.00;0.00;;;;;18.80;75.94;99304.56;5035297;28;52653;-88
2023/08/02 02:34:30;;;;;;;;;0.00;0.00;;;;;18.81;75.05;99293.00;5029411;28;45257;-86
2023/08/02 02:36:55;;;;;;;;;0.00;0.00;;;;;18.83;76.49;99293.75;5050043;28;57719;-86
2023/08/02 02:39:20;;;;;;;;;0.00;0.00;;;;;18.85;75.06;99283.03;5033606;28;46942;-88
2023/08/02 02:41:46;;;;;;;;;0.00;0.00;;;;;18.84;76.30;99266.28;5034130;28;61224;-88
2023/08/02 02:44:11;;;;;;;;;0.00;0.00;;;;;18.79;75.82;99249.91;5037633;28;58374;-86
2023/08/02 02:46:36;;;;;;;;;0.00;0.00;;;;;18.84;75.26;99250.38;5038007;28;45374;-89
2023/08/02 02:49:02;;;;;;;;;0.00;0.00;;;;;18.86;75.48;99245.78;5038269;28;66635;-89
2023/08/02 02:51:27;;;;;;;;;0.00;0.00;;;;;18.87;75.38;99233.38;5040681;28;45197;-88
2023/08/02 02:53:52;;;;;;;;;2.00;0.00;;;;;18.87;75.99;99234.19;5039746;28;45588;-85
2023/08/02 02:56:18;;;;;;;;;1.00;0.00;;;;;18.93;74.97;99231.03;5038038;28;48851;-86
2023/08/02 02:58:43;;;;;;;;;2.00;0.00;;;;;18.99;76.42;99228.84;5042179;28;45502;-86
2023/08/02 03:01:09;;;;;;;;;1.00;0.00;;;;;18.95;77.13;99217.66;5034865;28;45489;-87
2023/08/02 03:03:34;;;;;;;;;0.00;0.00;;;;;18.93;76.89;99209.81;5042345;28;45436;-87
2023/08/02 03:06:00;;;;;;;;;1.50;0.00;;;;;18.91;76.26;99198.53;5030522;28;61835;-90
2023/08/02 03:08:26;;;;;;;;;0.00;0.00;;;;;18.88;77.39;99192.66;5025527;28;45444;-84
2023/08/02 03:10:51;;;;;;;;;0.25;0.25;;;;;18.91;76.62;99187.06;5029346;28;52215;-85
2023/08/02 03:13:16;;;;;;;;;1.00;1.00;;;;;18.96;77.81;99185.72;5037250;28;46148;-86
2023/08/02 03:15:42;;;;;;;;;0.25;0.00;;;;;18.93;76.96;99172.72;5039869;28;45349;-85
2023/08/02 03:18:07;;;;;;;;;0.00;0.00;;;;;18.94;76.89;99174.38;5036588;28;45643;-85
2023/08/02 03:20:32;;;;;;;;;0.00;0.00;;;;;18.95;78.32;99169.94;5037247;28;45553;-85
2023/08/02 03:22:58;;;;;;;;;1.25;0.00;;;;;19.02;76.62;99165.78;5031943;28;58099;-87
2023/08/02 03:25:23;;;;;;;;;0.00;0.00;;;;;19.05;76.55;99167.31;5033526;28;57399;-88
2023/08/02 03:27:48;;;;;;;;;0.00;0.00;;;;;19.11;76.38;99156.19;5030182;28;45315;-87
2023/08/02 03:30:14;;;;;;;;;0.00;0.00;;;;;19.16;76.85;99159.28;5067732;28;68055;-87
2023/08/02 03:32:39;;;;;;;;;0.00;0.00;;;;;19.16;76.55;99157.44;5038897;28;61877;-87
2023/08/02 03:35:05;;;;;;;;;0.00;0.00;;;;;19.23;76.64;99154.25;5045440;28;69549;-85
2023/08/02 03:37:30;;;;;;;;;0.00;0.00;;;;;19.22;76.95;99145.44;5053087;28;45188;-87
2023/08/02 03:39:56;;;;;;;;;0.00;0.00;;;;;19.29;76.30;99148.41;5043337;28;45027;-84
2023/08/02 03:42:21;;;;;;;;;0.00;0.00;;;;;19.29;76.06;99137.78;5022438;28;70067;-84
2023/08/02 03:44:46;;;;;;;;;0.00;0.00;;;;;19.36;77.07;99146.88;5033449;28;71745;-84
2023/08/02 03:47:12;;;;;;;;;0.00;0.00;;;;;19.36;76.11;99133.63;5037076;28;48684;-85
2023/08/02 03:49:38;;;;;;;;;0.00;0.00;;;;;19.38;76.28;99130.84;5039465;28;45421;-86
2023/08/02 03:52:04;;;;;;;;;0.00;0.00;;;;;19.43;76.21;99126.78;5041014;28;46403;-86
2023/08/02 03:54:29;;;;;;;;;0.00;0.00;;;;;19.46;76.19;99131.81;5038107;28;45329;-85
2023/08/02 03:56:58;;;;;;;;;0.00;0.00;;;;;19.49;77.94;99128.88;5039414;28;45349;-85
2023/08/02 03:59:24;;;;;;;;;0.00;0.00;;;;;19.49;76.59;99117.44;5038307;28;46504;-86
2023/08/02 04:01:49;;;;;;;;;0.00;0.00;;;;;19.54;76.33;99116.03;5039757;28;48543;-85
2023/08/02 04:04:14;;;;;;;;;0.00;0.00;;;;;19.58;76.49;99126.38;5036636;28;45269;-84
2023/08/02 04:06:40;;;;;;;;;0.00;0.00;;;;;19.60;76.83;99121.75;5034215;28;45435;-86
2023/08/02 04:09:05;;;;;;;;;0.00;0.00;;;;;19.61;76.60;99110.19;5042758;28;45161;-86
2023/08/02 04:11:31;;;;;;;;;0.00;0.00;;;;;19.63;76.31;99105.56;5043414;28;46542;-85
2023/08/02 04:13:57;;;;;;;;;0.00;0.00;;;;;19.64;77.00;99101.94;5039888;28;45269;-86
2023/08/02 04:16:22;;;;;;;;;0.00;0.00;;;;;19.65;76.36;99104.44;5034001;28;52822;-87
2023/08/02 04:18:47;;;;;;;;;0.00;0.00;;;;;19.63;76.24;99095.78;5025283;28;46951;-85
2023/08/02 04:21:18;;;;;;;;;0.00;0.00;;;;;19.66;76.49;99086.72;5013413;28;62581;-84
2023/08/02 04:23:43;;;;;;;;;0.50;0.00;;;;;19.69;76.81;99097.06;5030078;28;45263;-85
2023/08/02 04:26:09;;;;;;;;;0.00;0.00;;;;;19.73;76.50;99098.44;5035034;28;45225;-89
2023/08/02 04:28:35;;;;;;;;;0.00;0.00;;;;;19.74;76.35;99092.19;5037597;28;45205;-89
2023/08/02 04:31:00;;;;;;;;;0.00;0.00;;;;;19.60;77.31;99058.06;5044656;28;48301;-90
2023/08/02 04:33:27;;;;;;;;;0.00;0.00;;;;;19.75;76.86;99080.59;5040181;28;60875;-90
2023/08/02 04:35:52;;;;;;;;;0.00;0.00;;;;;19.75;76.76;99083.25;5060492;28;50415;-90
2023/08/02 04:38:18;;;;;;;;;0.00;0.00;;;;;19.77;77.01;99075.97;5055771;28;59944;-90
2023/08/02 04:40:43;;;;;;;;;0.00;0.00;;;;;19.82;76.91;99081.72;5057238;28;47013;-89
2023/08/02 04:43:09;;;;;;;;;0.00;0.00;;;;;19.80;77.79;99065.09;5051865;28;45465;-87
2023/08/02 04:45:34;;;;;;;;;0.00;0.00;;;;;19.73;77.14;99051.53;5049291;28;45385;-85
2023/08/02 04:47:59;;;;;;;;;0.00;0.00;;;;;19.88;78.33;99075.00;5044739;28;68725;-82
2023/08/02 04:50:25;;;;;;;;;0.00;0.00;;;;;19.90;77.32;99071.22;5037089;28;45391;-82
2023/08/02 04:52:50;;;;;;;;;0.00;0.00;;;;;19.91;77.94;99070.22;5035081;28;69199;-85
2023/08/02 04:55:15;;;;;;;;;0.00;0.00;;;;;19.92;77.38;99065.78;5039409;28;61710;-85
2023/08/02 04:57:41;;;;;;;;;0.00;0.00;;;;;19.95;77.25;99059.34;5050267;28;45462;-85
2023/08/02 05:00:07;;;;;;;;;0.00;0.00;;;;;19.93;77.01;99056.81;5036010;28;54052;-84
2023/08/02 05:02:36;;;;;;;;;0.00;0.00;;;;;19.99;77.05;99063.38;5024273;28;45411;-84
2023/08/02 05:05:02;;;;;;;;;0.00;0.00;;;;;20.03;77.41;99052.34;5037122;28;45398;-85
2023/08/02 05:07:31;;;;;;;;;0.25;0.00;;;;;20.04;76.72;99050.50;5019764;28;45606;-85
2023/08/02 05:09:57;;;;;;;;;0.00;0.00;;;;;19.99;77.83;99040.31;5034630;28;47335;-87
2023/08/02 05:12:24;;;;;;;;;0.00;0.00;;;;;20.00;76.92;99036.69;5033801;28;45272;-88
2023/08/02 05:14:50;;;;;;;;;1.00;0.00;;;;;20.14;77.75;99037.22;5038890;28;45359;-85
2023/08/02 05:17:15;;;;;;;;;0.00;0.00;;;;;20.15;77.75;99046.84;5032735;28;63067;-86
2023/08/02 05:19:40;;;;;;;;;0.00;0.00;;;;;20.12;78.04;99029.38;5020691;28;62899;-85
2023/08/02 05:22:06;;;;;;;;;0.00;0.00;;;;;20.17;78.07;99035.09;5029662;28;46934;-86
2023/08/02 05:24:31;;;;;;;;;1.00;0.00;;;;;20.19;77.06;99027.81;5035767;28;45753;-85
2023/08/02 05:26:57;;;;;;;;;0.00;0.00;;;;;20.16;77.75;99017.47;5040036;28;45357;-85
2023/08/02 05:29:22;;;;;;;;;0.00;0.00;;;;;20.10;77.20;99002.97;5024531;28;46751;-88
2023/08/02 05:31:48;;;;;;;;;1.25;0.00;;;;;20.21;77.62;99020.53;5039310;28;47132;-78
2023/08/02 05:34:13;;;;;;;;;0.00;0.00;;;;;20.24;78.13;99016.78;5033551;28;45554;-85
2023/08/02 05:36:38;;;;;;;;;0.00;0.00;;;;;20.16;77.45;98995.41;5030233;28;62379;-76
2023/08/02 05:39:04;;;;;;;;;0.00;0.00;;;;;20.25;77.14;99010.47;5021160;28;47888;-76
2023/08/02 05:41:29;;;;;;;;;0.00;0.00;;;;;20.31;77.47;99004.59;5028697;28;66488;-77
2023/08/02 05:43:54;;;;;;;;;0.00;0.00;;;;;20.34;77.54;99001.59;5033280;28;65012;-82
2023/08/02 05:46:20;;;;;;;;;0.00;0.00;;;;;20.38;77.49;99002.16;5012470;28;66180;-73
2023/08/02 05:48:45;;;;;;;;;0.00;0.00;;;;;20.38;77.84;98988.88;5016803;28;65607;-75
2023/08/02 05:51:10;;;;;;;;;0.00;0.00;;;;;20.41;77.32;98999.22;5029710;28;45432;-77
2023/08/02 05:53:36;;;;;;;;;0.00;0.00;;;;;20.43;77.32;99000.75;5032226;28;69444;-79
2023/08/02 05:56:03;;;;;;;;;0.75;0.00;;;;;20.45;77.02;99006.75;5044413;28;71282;-80
2023/08/02 05:58:29;;;;;;;;;0.00;0.00;;;;;20.41;77.18;98994.72;5041342;28;46454;-76
2023/08/02 06:00:54;;;;;;;;;0.00;0.00;;;;;20.46;76.96;99000.44;5024571;28;73341;-76
2023/08/02 06:03:19;;;;;;;;;1.75;0.00;;;;;20.44;77.85;98988.28;5049485;28;45228;-86
2023/08/02 06:05:45;;;;;;;;;0.00;0.00;;;;;20.51;78.06;99001.84;5035852;28;56514;-77
2023/08/02 06:08:11;;;;;;;;;0.00;0.00;;;;;20.48;77.34;98987.00;5017940;28;46483;-76
2023/08/02 06:10:37;;;;;;;;;0.00;0.00;;;;;20.47;77.75;98983.50;5031329;28;59518;-76
2023/08/02 06:13:02;;;;;;;;;0.00;0.00;;;;;20.54;77.40;98991.75;5028872;28;45439;-73
2023/08/02 06:15:28;;;;;;;;;0.00;0.00;;;;;20.57;77.19;98980.78;5020923;28;62097;-75
2023/08/02 06:17:54;;;;;;;;;1.00;0.00;;;;;20.59;77.48;98980.66;5035984;28;48104;-74
2023/08/02 06:20:19;;;;;;;;;0.00;0.00;;;;;20.65;78.56;98988.06;5041002;28;45904;-75
2023/08/02 06:22:45;;;;;;;;;0.00;0.00;;;;;20.67;77.42;98975.47;5036374;28;46330;-80
2023/08/02 06:25:10;;;;;;;;;0.00;0.00;;;;;20.66;77.68;98964.00;5027977;28;59730;-75
2023/08/02 06:27:35;;;;;;;;;0.00;0.00;;;;;20.67;77.91;98954.19;5031626;28;45470;-81
2023/08/02 06:30:01;;;;;;;;;0.00;0.00;;;;;20.69;77.70;98954.06;5023457;28;45382;-77
2023/08/02 06:32:26;;;;;;;;;0.75;0.00;;;;;20.70;77.82;98945.94;5027530;28;63922;-79
2023/08/02 06:34:51;;;;;;;;;2.50;0.00;;;;;20.72;79.16;98935.97;5034497;28;45422;-79
2023/08/02 06:37:17;;;;;;;;;0.00;0.00;;;;;20.71;77.95;98938.78;5032679;28;64448;-76
2023/08/02 06:39:42;;;;;;;;;0.00;0.00;;;;;20.70;78.12;98953.91;5036504;28;73577;-76
2023/08/02 06:42:07;;;;;;;;;1.00;0.25;;;;;20.72;78.34;98949.28;5027582;28;45443;-77
2023/08/02 06:44:33;;;;;;;;;0.00;0.00;;;;;20.75;78.21;98969.38;5027545;28;45480;-76
2023/08/02 06:46:58;;;;;;;;;0.25;0.00;;;;;20.80;78.50;98957.31;5034695;28;46283;-77
2023/08/02 06:49:23;;;;;;;;;0.50;0.00;;;;;20.80;77.77;98940.53;5034729;28;72872;-82
2023/08/02 06:51:49;;;;;;;;;0.25;0.00;;;;;20.84;77.95;98952.53;5028478;28;45633;-79
2023/08/02 06:54:14;;;;;;;;;0.00;0.00;;;;;20.83;77.16;98941.06;5009816;28;45569;-78
2023/08/02 06:56:42;;;;;;;;;0.00;0.00;;;;;20.80;77.40;98912.13;5032129;28;46080;-84
2023/08/02 06:59:07;;;;;;;;;1.25;0.00;;;;;20.88;77.00;98939.78;5048707;28;45592;-81
2023/08/02 07:01:32;;;;;;;;;0.00;0.00;;;;;20.83;76.98;98927.78;5028906;28;45472;-81
2023/08/02 07:03:58;;;;;;;;;1.00;0.00;;;;;20.92;76.68;98933.19;5020365;28;45328;-75
2023/08/02 07:06:23;;;;;;;;;0.00;0.00;;;;;20.97;76.60;98937.03;5020184;28;67485;-77
2023/08/02 07:08:49;;;;;;;;;0.00;0.00;;;;;21.05;76.66;98941.59;5022329;28;46020;-78
2023/08/02 07:11:15;;;;;;;;;0.00;0.00;;;;;21.17;76.68;98939.53;5039436;28;45393;-77
2023/08/02 07:13:44;;;;;;;;;0.00;0.00;;;;;21.24;76.35;98938.75;5037806;28;45451;-76
2023/08/02 07:16:10;;;;;;;;;0.00;0.00;;;;;21.32;75.69;98937.16;5035619;28;45283;-80
2023/08/02 07:18:35;;;;;;;;;0.25;0.00;;;;;21.41;75.30;98917.63;5011170;28;45353;-86
2023/08/02 07:21:05;;;;;;;;;1.00;0.00;;;;;21.52;75.25;98916.56;5036278;28;58656;-77
2023/08/02 07:23:30;;;;;;;;;1.00;0.00;;;;;21.57;74.87;98908.94;5020103;28;45418;-79
2023/08/02 07:25:56;;;;;;;;;0.50;0.00;;;;;21.73;73.87;98913.53;5021234;28;46907;-79
2023/08/02 07:28:21;;;;;;;;;0.00;0.00;;;;;21.80;73.07;98906.56;5035936;28;45462;-79
2023/08/02 07:30:47;;;;;;;;;0.50;0.00;;;;;21.82;72.88;98906.41;5037307;28;68279;-78
2023/08/02 07:33:12;;;;;;;;;0.00;0.00;;;;;21.89;73.02;98918.09;5020382;28;45257;-77
2023/08/02 07:35:37;;;;;;;;;0.00;0.00;;;;;21.88;72.91;98930.56;5028622;28;61380;-78
2023/08/02 07:38:03;;;;;;;;;0.00;0.00;;;;;21.84;73.10;98913.25;5017190;28;45769;-78
2023/08/02 07:40:28;;;;;;;;;0.25;0.00;;;;;21.83;73.08;98913.41;5031499;28;58233;-78
2023/08/02 07:42:53;;;;;;;;;0.50;0.00;;;;;21.78;72.38;98914.72;5036774;28;72070;-78
2023/08/02 07:45:19;;;;;;;;;0.00;0.00;;;;;21.77;72.48;98931.66;5016852;28;66539;-78
2023/08/02 07:47:44;;;;;;;;;0.00;0.00;;;;;21.83;72.87;98908.06;5041773;28;45426;-78
2023/08/02 07:50:10;;;;;;;;;0.00;0.00;;;;;21.98;72.42;98901.97;5041440;28;45373;-78
2023/08/02 07:52:36;;;;;;;;;1.00;0.00;;;;;22.11;72.30;98909.53;5024347;28;45249;-79
2023/08/02 07:55:01;;;;;;;;;1.00;0.00;;;;;22.15;72.12;98905.56;5024239;28;46960;-78
2023/08/02 07:57:30;;;;;;;;;1.00;0.00;;;;;22.17;71.41;98897.41;5039731;28;45226;-79
2023/08/02 07:59:57;;;;;;;;;0.00;0.00;;;;;22.24;71.62;98902.91;5040850;28;45327;-78
2023/08/02 08:02:22;;;;;;;;;0.00;0.00;;;;;22.22;70.74;98903.06;5035105;28;45483;-79
2023/08/02 08:04:48;;;;;;;;;1.75;0.00;;;;;22.33;70.92;98902.81;5054699;28;64127;-78
2023/08/02 08:07:13;;;;;;;;;0.00;0.00;;;;;22.39;70.14;98911.16;5011949;28;45315;-78
2023/08/02 08:09:38;;;;;;;;;0.00;0.00;;;;;22.40;70.45;98892.34;5039512;28;45530;-78
2023/08/02 08:12:05;;;;;;;;;0.00;0.00;;;;;22.47;70.17;98898.69;5040805;28;45170;-78
2023/08/02 08:14:30;;;;;;;;;0.00;0.00;;;;;22.56;69.63;98904.88;5030647;28;46631;-78
2023/08/02 08:16:57;;;;;;;;;0.00;0.00;;;;;22.59;70.25;98899.19;5026318;28;45360;-77
2023/08/02 08:19:23;;;;;;;;;1.00;0.00;;;;;22.63;69.94;98910.38;5010364;28;45573;-78
2023/08/02 08:21:51;;;;;;;;;0.00;0.00;;;;;22.68;69.62;98905.38;5033203;28;67469;-78
2023/08/02 08:24:17;;;;;;;;;0.00;0.00;;;;;22.82;69.87;98910.06;5038983;28;45439;-78
2023/08/02 08:26:42;;;;;;;;;0.00;0.00;;;;;22.98;69.53;98908.41;5043618;28;45371;-78
2023/08/02 08:29:07;;;;;;;;;1.25;0.00;;;;;23.09;69.21;98905.47;5026244;28;45406;-78
2023/08/02 08:31:35;;;;;;;;;0.00;0.00;;;;;23.13;68.18;98894.28;5034163;28;45566;-79
2023/08/02 08:34:03;;;;;;;;;0.00;0.00;;;;;23.23;67.65;98895.94;5039909;28;45368;-78
2023/08/02 08:36:34;;;;;;;;;0.75;0.00;;;;;23.26;67.94;98890.25;5040761;28;45159;-77
2023/08/02 08:38:59;;;;;;;;;0.00;0.00;;;;;23.36;67.63;98890.09;5043964;28;45353;-77
2023/08/02 08:41:25;;;;;;;;;0.00;0.00;;;;;23.45;67.39;98891.75;5041321;28;73545;-77
2023/08/02 08:43:50;;;;;;;;;0.00;0.00;;;;;23.55;66.66;98889.72;5026588;28;69790;-77
2023/08/02 08:46:17;;;;;;;;;1.00;0.00;;;;;23.58;66.71;98876.03;5035044;28;45381;-78
2023/08/02 08:48:43;;;;;;;;;0.00;0.00;;;;;23.60;67.05;98883.88;5040187;28;68164;-77
2023/08/02 08:51:10;;;;;;;;;0.00;0.00;;;;;23.66;65.97;98891.19;5034959;28;45312;-78
2023/08/02 08:53:37;;;;;;;;;0.25;0.25;;;;;23.64;65.72;98878.03;5040014;28;45343;-78
2023/08/02 08:56:04;;;;;;;;;1.00;0.75;;;;;23.63;66.06;98876.34;5018854;28;45561;-78
2023/08/02 08:58:32;;;;;;;;;0.00;0.00;;;;;23.61;65.88;98864.19;5038283;28;45505;-78
2023/08/02 09:00:58;;;;;;;;;0.25;0.00;;;;;23.61;64.50;98866.84;5022744;28;45705;-77
2023/08/02 09:03:25;;;;;;;;;0.50;0.00;;;;;23.60;65.08;98851.81;5037792;28;45426;-78
2023/08/02 09:05:51;;;;;;;;;0.00;0.00;;;;;23.62;64.90;98856.00;5028286;28;45369;-79
2023/08/02 09:08:17;;;;;;;;;0.00;0.00;;;;;23.65;62.55;98860.97;5021276;28;45404;-79
2023/08/02 09:10:42;;;;;;;;;13.50;12.75;;;;;23.68;63.52;98855.28;5033148;28;45273;-78
2023/08/02 09:13:24;;;;;;;;;1.50;0.25;;;;;23.78;62.62;98854.25;5035613;28;47095;-79
2023/08/02 09:16:16;;;;;;;;;2.50;2.50;;;;;23.94;63.26;98856.06;5039017;28;45344;-79
2023/08/02 09:18:42;;;;;;;;;2.75;1.50;;;;;24.14;63.10;98853.81;5036176;28;45384;-79
2023/08/02 09:21:09;;;;;;;;;0.00;0.00;;;;;24.25;61.64;98856.91;5021321;28;45629;-79
2023/08/02 09:23:35;;;;;;;;;0.00;0.00;;;;;24.43;62.35;98855.81;5020201;28;47153;-79
2023/08/02 09:26:14;;;;;;;;;0.25;0.00;;;;;24.63;60.21;98837.50;5039627;28;45355;-79
2023/08/02 09:28:40;;;;;;;;;0.00;0.00;;;;;24.72;58.07;98856.97;5053430;28;45390;-79
2023/08/02 09:31:18;;;;;;;;;0.00;0.00;;;;;24.78;59.71;98875.00;5039437;28;45470;-80
2023/08/02 09:33:51;;;;;;;;;0.00;0.00;;;;;24.81;58.14;98853.25;5036479;28;45328;-79
2023/08/02 09:36:22;;;;;;;;;0.00;0.00;;;;;24.90;57.59;98868.22;5039365;28;45300;-79
2023/08/02 09:39:06;;;;;;;;;0.00;0.00;;;;;24.95;57.96;98865.81;5033557;28;45446;-80
2023/08/02 09:41:32;;;;;;;;;0.00;0.00;;;;;25.08;56.86;98861.72;5035374;28;45426;-79
2023/08/02 09:43:57;;;;;;;;;0.00;0.00;;;;;25.19;57.92;98862.09;5039180;28;46449;-80
2023/08/02 09:46:34;;;;;;;;;0.00;0.00;;;;;25.29;57.21;98858.38;5038737;28;45414;-80
2023/08/02 09:49:01;;;;;;;;;0.25;0.25;;;;;25.32;54.61;98848.13;5023340;28;45283;-79
2023/08/02 09:51:43;;;;;;;;;1.50;0.00;;;;;25.39;56.68;98850.88;5037658;28;45439;-79
2023/08/02 09:54:11;;;;;;;;;0.00;0.00;;;;;25.47;52.06;98868.72;5036509;28;46321;-79
2023/08/02 09:56:38;;;;;;;;;0.00;0.00;;;;;25.37;53.96;98855.59;5037891;28;45399;-77
2023/08/02 09:59:04;;;;;;;;;2.25;0.00;;;;;25.20;53.70;98877.13;5035961;28;45501;-78
2023/08/02 10:01:30;;;;;;;;;0.75;0.00;;;;;25.04;53.10;98860.38;5022052;28;45310;-79
2023/08/02 10:03:59;;;;;;;;;0.25;0.00;;;;;24.91;53.81;98869.84;5033405;28;45500;-78
2023/08/02 10:06:29;;;;;;;;;1.00;0.00;;;;;24.92;52.86;98870.72;5020257;28;45677;-78
2023/08/02 10:09:02;;;;;;;;;0.75;0.00;;;;;24.89;50.47;98881.75;5037678;28;45357;-78
2023/08/02 10:11:28;;;;;;;;;0.25;0.25;;;;;24.92;49.62;98890.25;5038604;28;45464;-78
2023/08/02 10:13:55;;;;;;;;;2.00;0.00;;;;;24.88;48.76;98901.50;5026987;28;45368;-78
2023/08/02 10:16:23;;;;;;;;;0.00;0.00;;;;;24.76;47.63;98896.56;5033195;28;45664;-79
2023/08/02 10:18:50;;;;;;;;;0.00;0.00;;;;;24.74;48.86;98898.59;5008033;28;45364;-80
2023/08/02 10:21:17;;;;;;;;;0.00;0.00;;;;;24.70;48.63;98886.59;5037455;28;45431;-79
2023/08/02 10:23:43;;;;;;;;;0.00;0.00;;;;;24.69;48.02;98897.47;5036456;28;47403;-79
2023/08/02 10:26:08;;;;;;;;;0.00;0.00;;;;;24.63;49.49;98893.66;5037306;28;57429;-78
2023/08/02 10:28:34;;;;;;;;;0.00;0.00;;;;;24.66;49.20;98882.59;5020804;28;45408;-79
2023/08/02 10:31:02;;;;;;;;;3.25;0.00;;;;;24.63;49.69;98891.81;5020758;28;70109;-79
2023/08/02 10:33:28;;;;;;;;;0.25;0.00;;;;;24.64;49.93;98881.94;5053427;28;47271;-78
2023/08/02 10:35:53;;;;;;;;;1.50;0.25;;;;;24.70;49.26;98889.28;5038838;28;45411;-79
2023/08/02 10:38:25;;;;;;;;;0.00;0.00;;;;;24.83;49.57;98868.09;5035306;28;45265;-78
2023/08/02 10:41:11;;;;;;;;;1.25;0.00;;;;;25.07;48.79;98884.13;5037340;28;45443;-78
2023/08/02 10:43:52;;;;;;;;;1.00;0.00;;;;;25.18;49.10;98889.06;5036904;28;45575;-78
2023/08/02 10:46:26;;;;;;;;;0.50;0.50;;;;;25.19;50.16;98898.72;5037163;28;45218;-79
2023/08/02 10:48:52;;;;;;;;;1.75;0.00;;;;;25.12;48.62;98900.47;5038657;28;45367;-78
2023/08/02 10:51:31;;;;;;;;;1.00;0.50;;;;;24.93;47.95;98891.09;5033763;28;45547;-78
2023/08/02 10:54:28;;;;;;;;;2.00;1.00;;;;;24.80;49.38;98886.34;5014687;28;47029;-79
2023/08/02 10:56:55;;;;;;;;;0.25;0.25;;;;;24.74;47.86;98881.72;5001399;28;45494;-79
2023/08/02 10:59:23;;;;;;;;;2.75;0.00;;;;;24.67;46.05;98875.41;5035879;28;45257;-79
2023/08/02 11:02:08;;;;;;;;;1.00;0.00;;;;;24.60;44.44;98875.28;5037272;28;45374;-78
2023/08/02 11:04:35;;;;;;;;;1.00;1.00;;;;;24.54;42.50;98876.84;5037413;28;47537;-78
2023/08/02 11:07:16;;;;;;;;;0.00;0.00;;;;;24.50;41.30;98874.66;5036978;28;45684;-78
2023/08/02 11:09:42;;;;;;;;;0.50;0.50;;;;;24.43;40.47;98871.84;5028147;28;45279;-78
2023/08/02 11:12:18;;;;;;;;;0.00;0.00;;;;;24.42;41.17;98872.88;5037742;28;45280;-78
2023/08/02 11:14:45;;;;;;;;;1.00;0.25;;;;;24.41;41.57;98861.31;5041830;28;46476;-78
2023/08/02 11:17:15;;;;;;;;;0.75;0.25;;;;;24.42;43.28;98894.25;5033406;28;45716;-78
2023/08/02 11:19:48;;;;;;;;;0.00;0.00;;;;;24.43;41.81;98869.16;5032949;28;45360;-79
2023/08/02 11:22:14;;;;;;;;;3.25;1.25;;;;;24.49;43.43;98873.81;5037382;28;45367;-78
2023/08/02 11:24:44;;;;;;;;;2.00;1.25;;;;;24.55;43.77;98883.00;5041531;28;45335;-78
2023/08/02 11:27:17;;;;;;;;;0.25;0.25;;;;;24.61;42.67;98885.81;5024311;28;45625;-78
2023/08/02 11:30:06;;;;;;;;;1.25;0.25;;;;;24.63;41.47;98881.13;5026211;28;45411;-79
2023/08/02 11:32:32;;;;;;;;;0.25;0.00;;;;;24.69;43.95;98887.59;5032794;28;45318;-78